Poli, China
Current Conditions -  °F | °C
As of 6:00 AM on Tuesday 23 Dec 2014 (Local Time) from ZSQD Reporting Station
Clear Clear  
Wind Chill: 32°   Ceiling: Unl
Heat Index: 37°   Visibility: 4mi
Dew Point: 12°   Wind: 7mph
Humidity: 36%   Direction: 180°S
Pressure: 30.27"   Gusts: NA
Location:  35.7°N, 119.77°E
Report Text: ZSQD 222200Z 18003MPS 7000 NSC 03/M11 Q1025 NOSIG
Loading
Personal Weather Stations






























Interactive Weather Map New forecast layout! Learn more

10-Day Weather Forecast

Advertisements
Track Severe Weather on mobile